Main page
METAR-TAF:

METAR-TAF

Airports :

Ixtapa-Zihuatanejo International Airport

Zihuatanejo, Mexico

latitude: 17-36N, longitude: 101-28W, elevation: 6 m

Current weather observation

The report was made 5 hours and 52 minutes ago, at 02:40 UTC
Calm wind
Temperature 30°C
Humidity 75%
Pressure 1011 hPa
Visibility: 11.3 km
Few clouds at a height of 2000 ft

METAR: MMZH 270240Z 00000KT 7SM FEW020 30/25 A2986 RMK SLP103 52020 900 8/500 HZY ISOL CI

Time: 03:32 (08:32 UTC)

Forecast

The report was made 4 hours and 16 minutes ago, at 04:16 UTC
Forecast valid from 27 at 06 UTC to 28 at 06 UTC
Wind kt from the North
Visibility: 9.7 km
Clear sky
haze
From 27 at 1800 UTC
Wind 10 kt from the Southwest
Visibility: 9.7 km
Scattered clouds at a height of 2500 ft
haze
From 28 at 0300 UTC
Wind 5 kt from the Southwest
Visibility: 9.7 km
Scattered clouds at a height of 2000 ft
haze

TAF: MMZH 270416Z 2706/2806 00000KT 6SM HZ SKC FM271800 23010KT 6SM HZ SCT025 FM280300 23005KT 6SM HZ SCT020

Weather observations and forecasts of more than 4000 airports (METAR and TAF reports).

The available stations are represented by yellow and red dots on the map.

Hover mouse over dot to see the name of the station.

Then click to see weather observations and forecasts.

To change the map : click on the green buttons with a black cross to zoom in, on the green button with a dash to zoom out, or on the green arrows for adjacent maps.


METAR-TAF: